sensor_id;sensor_type;location;lat;lon;timestamp;temperature;humidity
55203;DHT22;41077;52.956;6.796;2022-09-09T00:04:02;14.40;99.90
55203;DHT22;41077;52.956;6.796;2022-09-09T00:09:19;14.40;99.90
55203;DHT22;41077;52.956;6.796;2022-09-09T00:11:52;14.40;99.90
55203;DHT22;41077;52.956;6.796;2022-09-09T00:14:31;14.40;99.90
55203;DHT22;41077;52.956;6.796;2022-09-09T00:17:09;14.40;99.90
55203;DHT22;41077;52.956;6.796;2022-09-09T00:19:44;14.30;99.90
55203;DHT22;41077;52.956;6.796;2022-09-09T00:22:20;14.20;99.90
55203;DHT22;41077;52.956;6.796;2022-09-09T00:25:08;14.30;99.90
55203;DHT22;41077;52.956;6.796;2022-09-09T00:27:44;14.30;99.90
55203;DHT22;41077;52.956;6.796;2022-09-09T00:30:23;14.30;99.90
55203;DHT22;41077;52.956;6.796;2022-09-09T00:32:54;14.30;99.90
55203;DHT22;41077;52.956;6.796;2022-09-09T00:35:36;14.30;99.90
55203;DHT22;41077;52.956;6.796;2022-09-09T00:38:15;14.20;99.90
55203;DHT22;41077;52.956;6.796;2022-09-09T00:41:03;14.20;99.90
55203;DHT22;41077;52.956;6.796;2022-09-09T00:43:36;14.20;99.90
55203;DHT22;41077;52.956;6.796;2022-09-09T00:54:33;14.20;99.90
55203;DHT22;41077;52.956;6.796;2022-09-09T01:05:10;14.10;99.90
55203;DHT22;41077;52.956;6.796;2022-09-09T01:07:38;14.00;99.90
55203;DHT22;41077;52.956;6.796;2022-09-09T01:10:11;14.00;99.90
55203;DHT22;41077;52.956;6.796;2022-09-09T01:12:42;14.00;99.90
55203;DHT22;41077;52.956;6.796;2022-09-09T01:15:22;14.00;99.90
55203;DHT22;41077;52.956;6.796;2022-09-09T01:20:55;14.00;99.90
55203;DHT22;41077;52.956;6.796;2022-09-09T01:26:45;13.90;99.90
55203;DHT22;41077;52.956;6.796;2022-09-09T01:29:17;13.90;99.90
55203;DHT22;41077;52.956;6.796;2022-09-09T01:37:49;13.90;99.90
55203;DHT22;41077;52.956;6.796;2022-09-09T01:40:14;14.00;99.90
55203;DHT22;41077;52.956;6.796;2022-09-09T01:42:40;14.00;99.90
55203;DHT22;41077;52.956;6.796;2022-09-09T01:45:06;14.00;99.90
55203;DHT22;41077;52.956;6.796;2022-09-09T01:47:32;14.00;99.90
55203;DHT22;41077;52.956;6.796;2022-09-09T01:49:59;14.10;99.90
55203;DHT22;41077;52.956;6.796;2022-09-09T01:52:26;14.10;99.90
55203;DHT22;41077;52.956;6.796;2022-09-09T01:54:52;14.10;99.90
55203;DHT22;41077;52.956;6.796;2022-09-09T01:57:32;14.20;99.90
55203;DHT22;41077;52.956;6.796;2022-09-09T02:00:16;14.20;99.90
55203;DHT22;41077;52.956;6.796;2022-09-09T02:08:09;14.20;99.90
55203;DHT22;41077;52.956;6.796;2022-09-09T02:10:48;14.30;99.90
55203;DHT22;41077;52.956;6.796;2022-09-09T02:13:19;14.30;99.90
55203;DHT22;41077;52.956;6.796;2022-09-09T02:15:53;14.40;99.90
55203;DHT22;41077;52.956;6.796;2022-09-09T02:18:38;14.40;99.90
55203;DHT22;41077;52.956;6.796;2022-09-09T02:21:06;14.40;99.90
55203;DHT22;41077;52.956;6.796;2022-09-09T02:23:33;14.40;99.90
55203;DHT22;41077;52.956;6.796;2022-09-09T02:26:00;14.40;99.90
55203;DHT22;41077;52.956;6.796;2022-09-09T02:28:29;14.50;99.90
55203;DHT22;41077;52.956;6.796;2022-09-09T02:30:57;14.50;99.90
55203;DHT22;41077;52.956;6.796;2022-09-09T02:33:27;14.50;99.90
55203;DHT22;41077;52.956;6.796;2022-09-09T02:35:55;14.50;99.90
55203;DHT22;41077;52.956;6.796;2022-09-09T02:38:29;14.50;99.90
55203;DHT22;41077;52.956;6.796;2022-09-09T02:40:57;14.60;99.90
55203;DHT22;41077;52.956;6.796;2022-09-09T02:43:24;14.60;99.90
55203;DHT22;41077;52.956;6.796;2022-09-09T02:48:52;14.60;99.90
55203;DHT22;41077;52.956;6.796;2022-09-09T02:51:48;14.70;99.90
55203;DHT22;41077;52.956;6.796;2022-09-09T02:54:29;14.70;99.90
55203;DHT22;41077;52.956;6.796;2022-09-09T02:57:21;14.70;99.90
55203;DHT22;41077;52.956;6.796;2022-09-09T02:59:49;14.70;99.90
55203;DHT22;41077;52.956;6.796;2022-09-09T03:02:15;14.70;99.90
55203;DHT22;41077;52.956;6.796;2022-09-09T03:04:41;14.70;99.90
55203;DHT22;41077;52.956;6.796;2022-09-09T03:07:10;14.80;99.90
55203;DHT22;41077;52.956;6.796;2022-09-09T03:09:36;14.80;99.90
55203;DHT22;41077;52.956;6.796;2022-09-09T03:12:02;14.80;99.90
55203;DHT22;41077;52.956;6.796;2022-09-09T03:14:29;14.80;99.90
55203;DHT22;41077;52.956;6.796;2022-09-09T03:16:56;14.80;99.90
55203;DHT22;41077;52.956;6.796;2022-09-09T03:19:23;14.80;99.90
55203;DHT22;41077;52.956;6.796;2022-09-09T03:21:49;14.80;99.90
55203;DHT22;41077;52.956;6.796;2022-09-09T03:24:15;14.80;99.90
55203;DHT22;41077;52.956;6.796;2022-09-09T03:26:41;14.80;99.90
55203;DHT22;41077;52.956;6.796;2022-09-09T03:29:10;14.80;99.90
55203;DHT22;41077;52.956;6.796;2022-09-09T03:31:38;14.80;99.90
55203;DHT22;41077;52.956;6.796;2022-09-09T03:34:04;14.80;99.90
55203;DHT22;41077;52.956;6.796;2022-09-09T03:36:30;14.80;99.90
55203;DHT22;41077;52.956;6.796;2022-09-09T03:38:56;14.80;99.90
55203;DHT22;41077;52.956;6.796;2022-09-09T03:41:22;14.80;99.90
55203;DHT22;41077;52.956;6.796;2022-09-09T03:43:53;14.80;99.90
55203;DHT22;41077;52.956;6.796;2022-09-09T03:46:20;14.80;99.90
55203;DHT22;41077;52.956;6.796;2022-09-09T03:48:46;14.80;99.90
55203;DHT22;41077;52.956;6.796;2022-09-09T03:51:12;14.80;99.90
55203;DHT22;41077;52.956;6.796;2022-09-09T03:53:38;14.80;99.90
55203;DHT22;41077;52.956;6.796;2022-09-09T03:56:05;14.80;99.90
55203;DHT22;41077;52.956;6.796;2022-09-09T03:58:36;14.80;99.90
55203;DHT22;41077;52.956;6.796;2022-09-09T04:01:05;14.80;99.90
55203;DHT22;41077;52.956;6.796;2022-09-09T04:03:31;14.70;99.90
55203;DHT22;41077;52.956;6.796;2022-09-09T04:05:59;14.70;99.90
55203;DHT22;41077;52.956;6.796;2022-09-09T04:08:26;14.70;99.90
55203;DHT22;41077;52.956;6.796;2022-09-09T04:10:52;14.70;99.90
55203;DHT22;41077;52.956;6.796;2022-09-09T04:13:19;14.70;99.90
55203;DHT22;41077;52.956;6.796;2022-09-09T04:15:51;14.70;99.90
55203;DHT22;41077;52.956;6.796;2022-09-09T04:18:18;14.70;99.90
55203;DHT22;41077;52.956;6.796;2022-09-09T04:20:49;14.70;99.90
55203;DHT22;41077;52.956;6.796;2022-09-09T04:23:17;14.70;99.90
55203;DHT22;41077;52.956;6.796;2022-09-09T04:25:48;14.70;99.90
55203;DHT22;41077;52.956;6.796;2022-09-09T04:28:15;14.70;99.90
55203;DHT22;41077;52.956;6.796;2022-09-09T04:30:42;14.70;99.90
55203;DHT22;41077;52.956;6.796;2022-09-09T04:33:09;14.60;99.90
55203;DHT22;41077;52.956;6.796;2022-09-09T04:35:35;14.70;99.90
55203;DHT22;41077;52.956;6.796;2022-09-09T04:38:01;14.70;99.90
55203;DHT22;41077;52.956;6.796;2022-09-09T04:40:29;14.70;99.90
55203;DHT22;41077;52.956;6.796;2022-09-09T04:42:57;14.70;99.90
55203;DHT22;41077;52.956;6.796;2022-09-09T04:45:23;14.70;99.90
55203;DHT22;41077;52.956;6.796;2022-09-09T04:47:48;14.70;99.90
55203;DHT22;41077;52.956;6.796;2022-09-09T04:50:14;14.60;99.90
55203;DHT22;41077;52.956;6.796;2022-09-09T04:52:41;14.60;99.90
55203;DHT22;41077;52.956;6.796;2022-09-09T04:55:07;14.60;99.90
55203;DHT22;41077;52.956;6.796;2022-09-09T04:57:34;14.60;99.90
55203;DHT22;41077;52.956;6.796;2022-09-09T05:00:00;14.60;99.90
55203;DHT22;41077;52.956;6.796;2022-09-09T05:02:26;14.60;99.90
55203;DHT22;41077;52.956;6.796;2022-09-09T05:04:52;14.60;99.90
55203;DHT22;41077;52.956;6.796;2022-09-09T05:07:17;14.60;99.90
55203;DHT22;41077;52.956;6.796;2022-09-09T05:09:44;14.60;99.90
55203;DHT22;41077;52.956;6.796;2022-09-09T05:12:11;14.60;99.90
55203;DHT22;41077;52.956;6.796;2022-09-09T05:14:36;14.60;99.90
55203;DHT22;41077;52.956;6.796;2022-09-09T05:17:03;14.60;99.90
55203;DHT22;41077;52.956;6.796;2022-09-09T05:19:29;14.60;99.90
55203;DHT22;41077;52.956;6.796;2022-09-09T05:21:56;14.60;99.90
55203;DHT22;41077;52.956;6.796;2022-09-09T05:24:22;14.60;99.90
55203;DHT22;41077;52.956;6.796;2022-09-09T05:26:51;14.60;99.90
55203;DHT22;41077;52.956;6.796;2022-09-09T05:29:17;14.60;99.90
55203;DHT22;41077;52.956;6.796;2022-09-09T05:31:45;14.60;99.90
55203;DHT22;41077;52.956;6.796;2022-09-09T05:34:12;14.60;99.90
55203;DHT22;41077;52.956;6.796;2022-09-09T05:36:38;14.60;99.90
55203;DHT22;41077;52.956;6.796;2022-09-09T05:39:04;14.60;99.90
55203;DHT22;41077;52.956;6.796;2022-09-09T05:41:29;14.60;99.90
55203;DHT22;41077;52.956;6.796;2022-09-09T05:43:56;14.60;99.90
55203;DHT22;41077;52.956;6.796;2022-09-09T05:46:24;14.60;99.90
55203;DHT22;41077;52.956;6.796;2022-09-09T05:48:51;14.60;99.90
55203;DHT22;41077;52.956;6.796;2022-09-09T05:51:24;14.60;99.90
55203;DHT22;41077;52.956;6.796;2022-09-09T05:53:50;14.50;99.90
55203;DHT22;41077;52.956;6.796;2022-09-09T05:56:24;14.60;99.90
55203;DHT22;41077;52.956;6.796;2022-09-09T05:58:51;14.60;99.90
55203;DHT22;41077;52.956;6.796;2022-09-09T06:01:24;14.60;99.90
55203;DHT22;41077;52.956;6.796;2022-09-09T06:03:51;14.60;99.90
55203;DHT22;41077;52.956;6.796;2022-09-09T06:06:19;14.60;99.90
55203;DHT22;41077;52.956;6.796;2022-09-09T06:08:50;14.60;99.90
55203;DHT22;41077;52.956;6.796;2022-09-09T06:11:25;14.60;99.90
55203;DHT22;41077;52.956;6.796;2022-09-09T06:13:51;14.70;99.90
55203;DHT22;41077;52.956;6.796;2022-09-09T06:16:23;14.70;99.90
55203;DHT22;41077;52.956;6.796;2022-09-09T06:18:50;14.70;99.90
55203;DHT22;41077;52.956;6.796;2022-09-09T06:21:19;14.70;99.90
55203;DHT22;41077;52.956;6.796;2022-09-09T06:23:46;14.70;99.90
55203;DHT22;41077;52.956;6.796;2022-09-09T06:26:16;14.70;99.90
55203;DHT22;41077;52.956;6.796;2022-09-09T06:28:48;14.70;99.90
55203;DHT22;41077;52.956;6.796;2022-09-09T06:31:19;14.70;99.90
55203;DHT22;41077;52.956;6.796;2022-09-09T06:33:50;14.80;99.90
55203;DHT22;41077;52.956;6.796;2022-09-09T06:36:21;14.80;99.90
55203;DHT22;41077;52.956;6.796;2022-09-09T06:38:48;14.90;99.90
55203;DHT22;41077;52.956;6.796;2022-09-09T06:41:15;15.00;99.90
55203;DHT22;41077;52.956;6.796;2022-09-09T06:43:42;15.00;99.90
55203;DHT22;41077;52.956;6.796;2022-09-09T06:46:12;15.10;99.90
55203;DHT22;41077;52.956;6.796;2022-09-09T06:48:39;15.10;99.90
55203;DHT22;41077;52.956;6.796;2022-09-09T06:51:18;15.10;99.90
55203;DHT22;41077;52.956;6.796;2022-09-09T06:53:45;15.10;99.90
55203;DHT22;41077;52.956;6.796;2022-09-09T06:58:40;15.10;99.90
55203;DHT22;41077;52.956;6.796;2022-09-09T07:01:16;15.10;99.90
55203;DHT22;41077;52.956;6.796;2022-09-09T07:03:45;15.10;99.90
55203;DHT22;41077;52.956;6.796;2022-09-09T07:06:20;15.20;99.90
55203;DHT22;41077;52.956;6.796;2022-09-09T07:08:50;15.20;99.90
55203;DHT22;41077;52.956;6.796;2022-09-09T07:11:17;15.20;99.90
55203;DHT22;41077;52.956;6.796;2022-09-09T07:13:43;15.30;99.90
55203;DHT22;41077;52.956;6.796;2022-09-09T07:16:11;15.30;99.90
55203;DHT22;41077;52.956;6.796;2022-09-09T07:18:39;15.30;99.90
55203;DHT22;41077;52.956;6.796;2022-09-09T07:21:05;15.30;99.90
55203;DHT22;41077;52.956;6.796;2022-09-09T07:23:32;15.30;99.90
55203;DHT22;41077;52.956;6.796;2022-09-09T07:25:58;15.30;99.90
55203;DHT22;41077;52.956;6.796;2022-09-09T07:28:25;15.40;99.90
55203;DHT22;41077;52.956;6.796;2022-09-09T07:31:00;15.40;99.90
55203;DHT22;41077;52.956;6.796;2022-09-09T07:33:30;15.40;99.90
55203;DHT22;41077;52.956;6.796;2022-09-09T07:36:04;15.50;99.90
55203;DHT22;41077;52.956;6.796;2022-09-09T07:38:31;15.50;99.90
55203;DHT22;41077;52.956;6.796;2022-09-09T07:41:08;15.50;99.90
55203;DHT22;41077;52.956;6.796;2022-09-09T07:43:44;15.60;99.90
55203;DHT22;41077;52.956;6.796;2022-09-09T07:46:11;15.70;99.90
55203;DHT22;41077;52.956;6.796;2022-09-09T07:48:39;15.80;99.90
55203;DHT22;41077;52.956;6.796;2022-09-09T07:51:14;15.90;99.90
55203;DHT22;41077;52.956;6.796;2022-09-09T07:53:44;16.00;99.90
55203;DHT22;41077;52.956;6.796;2022-09-09T07:56:13;16.10;99.90
55203;DHT22;41077;52.956;6.796;2022-09-09T07:58:40;16.20;99.90
55203;DHT22;41077;52.956;6.796;2022-09-09T08:01:18;16.20;99.90
55203;DHT22;41077;52.956;6.796;2022-09-09T08:03:45;16.30;99.90
55203;DHT22;41077;52.956;6.796;2022-09-09T08:06:12;16.40;99.90
55203;DHT22;41077;52.956;6.796;2022-09-09T08:08:39;16.50;99.90
55203;DHT22;41077;52.956;6.796;2022-09-09T08:11:14;16.50;99.90
55203;DHT22;41077;52.956;6.796;2022-09-09T08:13:42;16.60;99.90
55203;DHT22;41077;52.956;6.796;2022-09-09T08:18:35;16.60;99.90
55203;DHT22;41077;52.956;6.796;2022-09-09T08:21:06;16.60;99.90
55203;DHT22;41077;52.956;6.796;2022-09-09T08:23:32;16.60;99.90
55203;DHT22;41077;52.956;6.796;2022-09-09T08:26:05;16.60;99.90
55203;DHT22;41077;52.956;6.796;2022-09-09T08:28:31;16.70;99.90
55203;DHT22;41077;52.956;6.796;2022-09-09T08:31:05;16.80;99.90
55203;DHT22;41077;52.956;6.796;2022-09-09T08:33:31;17.00;99.90
55203;DHT22;41077;52.956;6.796;2022-09-09T08:35:58;17.10;99.90
55203;DHT22;41077;52.956;6.796;2022-09-09T08:38:24;17.20;99.90
55203;DHT22;41077;52.956;6.796;2022-09-09T08:40:52;17.30;99.90
55203;DHT22;41077;52.956;6.796;2022-09-09T08:43:22;17.30;99.90
55203;DHT22;41077;52.956;6.796;2022-09-09T08:45:58;17.30;99.90
55203;DHT22;41077;52.956;6.796;2022-09-09T08:48:40;17.40;99.90
55203;DHT22;41077;52.956;6.796;2022-09-09T08:51:08;17.40;99.90
55203;DHT22;41077;52.956;6.796;2022-09-09T08:53:45;17.50;99.90
55203;DHT22;41077;52.956;6.796;2022-09-09T08:56:32;17.60;99.90
55203;DHT22;41077;52.956;6.796;2022-09-09T08:59:00;17.70;99.90
55203;DHT22;41077;52.956;6.796;2022-09-09T09:12:50;17.70;99.90
55203;DHT22;41077;52.956;6.796;2022-09-09T09:15:25;17.60;99.90
55203;DHT22;41077;52.956;6.796;2022-09-09T09:17:52;17.60;99.90
55203;DHT22;41077;52.956;6.796;2022-09-09T09:20:25;17.70;99.90
55203;DHT22;41077;52.956;6.796;2022-09-09T09:23:00;17.70;99.90
55203;DHT22;41077;52.956;6.796;2022-09-09T09:25:39;17.90;99.90
55203;DHT22;41077;52.956;6.796;2022-09-09T09:28:26;17.90;99.90
55203;DHT22;41077;52.956;6.796;2022-09-09T09:30:56;17.90;99.90
55203;DHT22;41077;52.956;6.796;2022-09-09T09:33:51;17.90;99.90
55203;DHT22;41077;52.956;6.796;2022-09-09T09:36:19;17.80;99.90
55203;DHT22;41077;52.956;6.796;2022-09-09T09:38:56;17.80;99.90
55203;DHT22;41077;52.956;6.796;2022-09-09T09:41:37;17.80;99.90
55203;DHT22;41077;52.956;6.796;2022-09-09T09:44:05;17.80;99.90
55203;DHT22;41077;52.956;6.796;2022-09-09T09:46:31;17.70;99.90
55203;DHT22;41077;52.956;6.796;2022-09-09T09:49:02;17.80;99.90
55203;DHT22;41077;52.956;6.796;2022-09-09T09:51:30;17.90;99.90
55203;DHT22;41077;52.956;6.796;2022-09-09T09:54:27;18.00;99.90
55203;DHT22;41077;52.956;6.796;2022-09-09T09:56:54;18.20;99.90
55203;DHT22;41077;52.956;6.796;2022-09-09T10:01:47;18.40;99.90
55203;DHT22;41077;52.956;6.796;2022-09-09T10:06:38;18.60;99.90
55203;DHT22;41077;52.956;6.796;2022-09-09T10:09:29;18.70;99.90
55203;DHT22;41077;52.956;6.796;2022-09-09T10:14:39;18.80;99.90
55203;DHT22;41077;52.956;6.796;2022-09-09T10:22:33;19.20;99.90
55203;DHT22;41077;52.956;6.796;2022-09-09T10:30:18;19.30;99.90
55203;DHT22;41077;52.956;6.796;2022-09-09T10:33:03;19.30;99.90
55203;DHT22;41077;52.956;6.796;2022-09-09T10:35:34;19.30;99.90
55203;DHT22;41077;52.956;6.796;2022-09-09T10:38:15;19.20;99.90
55203;DHT22;41077;52.956;6.796;2022-09-09T10:49:02;19.00;99.90
55203;DHT22;41077;52.956;6.796;2022-09-09T10:51:40;19.10;99.90
55203;DHT22;41077;52.956;6.796;2022-09-09T10:59:51;19.10;99.90
55203;DHT22;41077;52.956;6.796;2022-09-09T11:02:36;19.10;99.90
55203;DHT22;41077;52.956;6.796;2022-09-09T11:05:15;19.10;99.90
55203;DHT22;41077;52.956;6.796;2022-09-09T11:08:04;19.10;99.90
55203;DHT22;41077;52.956;6.796;2022-09-09T11:13:09;19.50;99.90
55203;DHT22;41077;52.956;6.796;2022-09-09T11:15:40;19.60;99.90
55203;DHT22;41077;52.956;6.796;2022-09-09T11:18:14;19.90;99.90
55203;DHT22;41077;52.956;6.796;2022-09-09T11:20:44;20.10;99.90
55203;DHT22;41077;52.956;6.796;2022-09-09T11:23:24;20.00;99.90
55203;DHT22;41077;52.956;6.796;2022-09-09T11:25:55;20.00;99.90
55203;DHT22;41077;52.956;6.796;2022-09-09T11:42:20;22.10;99.90
55203;DHT22;41077;52.956;6.796;2022-09-09T11:44:46;22.20;99.90
55203;DHT22;41077;52.956;6.796;2022-09-09T11:47:23;22.10;99.90
55203;DHT22;41077;52.956;6.796;2022-09-09T11:49:52;21.80;99.90
55203;DHT22;41077;52.956;6.796;2022-09-09T11:52:34;21.50;99.90
55203;DHT22;41077;52.956;6.796;2022-09-09T11:55:23;21.40;99.90
55203;DHT22;41077;52.956;6.796;2022-09-09T11:58:01;21.40;99.90
55203;DHT22;41077;52.956;6.796;2022-09-09T12:00:34;21.20;99.90
55203;DHT22;41077;52.956;6.796;2022-09-09T12:03:01;21.10;99.90
55203;DHT22;41077;52.956;6.796;2022-09-09T12:05:41;20.90;99.90
55203;DHT22;41077;52.956;6.796;2022-09-09T12:08:11;20.80;99.90
55203;DHT22;41077;52.956;6.796;2022-09-09T12:10:41;20.80;99.90
55203;DHT22;41077;52.956;6.796;2022-09-09T12:13:18;20.70;99.90
55203;DHT22;41077;52.956;6.796;2022-09-09T12:18:32;20.80;99.90
55203;DHT22;41077;52.956;6.796;2022-09-09T12:21:30;20.80;99.90
55203;DHT22;41077;52.956;6.796;2022-09-09T12:24:09;21.00;99.90
55203;DHT22;41077;52.956;6.796;2022-09-09T12:26:45;21.00;99.90
55203;DHT22;41077;52.956;6.796;2022-09-09T12:29:51;21.00;99.90
55203;DHT22;41077;52.956;6.796;2022-09-09T12:32:23;21.00;99.90
55203;DHT22;41077;52.956;6.796;2022-09-09T12:34:54;21.00;99.90
55203;DHT22;41077;52.956;6.796;2022-09-09T12:40:24;20.90;99.90
55203;DHT22;41077;52.956;6.796;2022-09-09T12:42:50;20.90;99.90
55203;DHT22;41077;52.956;6.796;2022-09-09T12:45:21;20.80;99.90
55203;DHT22;41077;52.956;6.796;2022-09-09T12:48:04;21.00;99.90
55203;DHT22;41077;52.956;6.796;2022-09-09T12:50:36;21.00;99.90
55203;DHT22;41077;52.956;6.796;2022-09-09T12:53:12;21.00;99.90
55203;DHT22;41077;52.956;6.796;2022-09-09T12:56:08;20.90;99.90
55203;DHT22;41077;52.956;6.796;2022-09-09T12:58:36;20.80;99.90
55203;DHT22;41077;52.956;6.796;2022-09-09T13:01:04;20.70;99.90
55203;DHT22;41077;52.956;6.796;2022-09-09T13:03:32;20.60;99.90
55203;DHT22;41077;52.956;6.796;2022-09-09T13:06:10;20.40;99.90
55203;DHT22;41077;52.956;6.796;2022-09-09T13:08:37;20.30;99.90
55203;DHT22;41077;52.956;6.796;2022-09-09T13:11:07;20.20;99.90
55203;DHT22;41077;52.956;6.796;2022-09-09T13:13:40;20.20;99.90
55203;DHT22;41077;52.956;6.796;2022-09-09T13:16:18;20.20;99.90
55203;DHT22;41077;52.956;6.796;2022-09-09T13:18:44;20.10;99.90
55203;DHT22;41077;52.956;6.796;2022-09-09T13:21:10;20.10;99.90
55203;DHT22;41077;52.956;6.796;2022-09-09T13:23:37;20.00;99.90
55203;DHT22;41077;52.956;6.796;2022-09-09T13:26:06;19.90;99.90
55203;DHT22;41077;52.956;6.796;2022-09-09T13:28:33;19.90;99.90
55203;DHT22;41077;52.956;6.796;2022-09-09T13:31:29;19.80;99.90
55203;DHT22;41077;52.956;6.796;2022-09-09T13:33:55;19.70;99.90
55203;DHT22;41077;52.956;6.796;2022-09-09T13:36:29;19.70;99.90
55203;DHT22;41077;52.956;6.796;2022-09-09T13:38:57;19.60;99.90
55203;DHT22;41077;52.956;6.796;2022-09-09T13:41:36;19.60;99.90
55203;DHT22;41077;52.956;6.796;2022-09-09T13:44:20;19.40;99.90
55203;DHT22;41077;52.956;6.796;2022-09-09T13:47:06;19.40;99.90
55203;DHT22;41077;52.956;6.796;2022-09-09T13:49:42;19.40;99.90
55203;DHT22;41077;52.956;6.796;2022-09-09T13:52:12;19.50;99.90
55203;DHT22;41077;52.956;6.796;2022-09-09T13:54:39;19.60;99.90
55203;DHT22;41077;52.956;6.796;2022-09-09T13:57:14;19.80;99.90
55203;DHT22;41077;52.956;6.796;2022-09-09T13:59:40;19.90;99.90
55203;DHT22;41077;52.956;6.796;2022-09-09T14:02:07;20.00;99.90
55203;DHT22;41077;52.956;6.796;2022-09-09T14:04:32;20.00;99.90
55203;DHT22;41077;52.956;6.796;2022-09-09T14:07:00;20.00;99.90
55203;DHT22;41077;52.956;6.796;2022-09-09T14:09:26;20.00;99.90
55203;DHT22;41077;52.956;6.796;2022-09-09T14:11:52;20.00;99.90
55203;DHT22;41077;52.956;6.796;2022-09-09T14:14:18;20.00;99.90
55203;DHT22;41077;52.956;6.796;2022-09-09T14:16:43;20.10;99.90
55203;DHT22;41077;52.956;6.796;2022-09-09T14:19:10;20.30;99.90
55203;DHT22;41077;52.956;6.796;2022-09-09T14:21:35;20.30;99.90
55203;DHT22;41077;52.956;6.796;2022-09-09T14:24:01;20.40;99.90
55203;DHT22;41077;52.956;6.796;2022-09-09T14:26:27;20.30;99.90
55203;DHT22;41077;52.956;6.796;2022-09-09T14:28:54;20.40;99.90
55203;DHT22;41077;52.956;6.796;2022-09-09T14:31:20;20.40;99.90
55203;DHT22;41077;52.956;6.796;2022-09-09T14:33:46;20.40;99.90
55203;DHT22;41077;52.956;6.796;2022-09-09T14:36:12;20.40;99.90
55203;DHT22;41077;52.956;6.796;2022-09-09T14:38:39;20.30;99.90
55203;DHT22;41077;52.956;6.796;2022-09-09T14:41:10;20.20;99.90
55203;DHT22;41077;52.956;6.796;2022-09-09T14:43:38;19.90;99.90
55203;DHT22;41077;52.956;6.796;2022-09-09T14:46:12;19.60;99.90
55203;DHT22;41077;52.956;6.796;2022-09-09T14:48:38;19.40;99.90
55203;DHT22;41077;52.956;6.796;2022-09-09T14:51:09;19.20;99.90
55203;DHT22;41077;52.956;6.796;2022-09-09T14:53:35;18.90;99.90
55203;DHT22;41077;52.956;6.796;2022-09-09T14:56:09;18.70;99.90
55203;DHT22;41077;52.956;6.796;2022-09-09T14:58:36;18.60;99.90
55203;DHT22;41077;52.956;6.796;2022-09-09T15:01:11;18.60;99.90
55203;DHT22;41077;52.956;6.796;2022-09-09T15:03:38;18.50;99.90
55203;DHT22;41077;52.956;6.796;2022-09-09T15:06:10;18.50;99.90
55203;DHT22;41077;52.956;6.796;2022-09-09T15:08:37;18.50;99.90
55203;DHT22;41077;52.956;6.796;2022-09-09T15:11:04;18.60;99.90
55203;DHT22;41077;52.956;6.796;2022-09-09T15:13:30;18.60;99.90
55203;DHT22;41077;52.956;6.796;2022-09-09T15:16:06;18.60;99.90
55203;DHT22;41077;52.956;6.796;2022-09-09T15:18:33;18.70;99.90
55203;DHT22;41077;52.956;6.796;2022-09-09T15:21:00;18.70;99.90
55203;DHT22;41077;52.956;6.796;2022-09-09T15:23:30;18.80;99.90
55203;DHT22;41077;52.956;6.796;2022-09-09T15:25:56;18.90;99.90
55203;DHT22;41077;52.956;6.796;2022-09-09T15:28:22;19.00;99.90
55203;DHT22;41077;52.956;6.796;2022-09-09T15:30:49;19.00;99.90
55203;DHT22;41077;52.956;6.796;2022-09-09T15:33:15;19.00;99.90
55203;DHT22;41077;52.956;6.796;2022-09-09T15:35:41;19.00;99.90
55203;DHT22;41077;52.956;6.796;2022-09-09T15:38:06;19.00;99.90
55203;DHT22;41077;52.956;6.796;2022-09-09T15:40:32;19.00;99.90
55203;DHT22;41077;52.956;6.796;2022-09-09T15:42:58;19.00;99.90
55203;DHT22;41077;52.956;6.796;2022-09-09T15:45:24;19.00;99.90
55203;DHT22;41077;52.956;6.796;2022-09-09T15:47:50;19.00;99.90
55203;DHT22;41077;52.956;6.796;2022-09-09T15:50:15;19.10;99.90
55203;DHT22;41077;52.956;6.796;2022-09-09T15:52:41;19.10;99.90
55203;DHT22;41077;52.956;6.796;2022-09-09T15:55:07;19.10;99.90
55203;DHT22;41077;52.956;6.796;2022-09-09T15:57:36;19.00;99.90
55203;DHT22;41077;52.956;6.796;2022-09-09T16:00:03;19.00;99.90
55203;DHT22;41077;52.956;6.796;2022-09-09T16:02:29;19.00;99.90
55203;DHT22;41077;52.956;6.796;2022-09-09T16:04:56;18.90;99.90
55203;DHT22;41077;52.956;6.796;2022-09-09T16:07:22;18.80;99.90
55203;DHT22;41077;52.956;6.796;2022-09-09T16:09:48;18.70;99.90
55203;DHT22;41077;52.956;6.796;2022-09-09T16:12:16;18.60;99.90
55203;DHT22;41077;52.956;6.796;2022-09-09T16:14:42;18.50;99.90
55203;DHT22;41077;52.956;6.796;2022-09-09T16:17:08;18.40;99.90
55203;DHT22;41077;52.956;6.796;2022-09-09T16:19:34;18.30;99.90
55203;DHT22;41077;52.956;6.796;2022-09-09T16:22:00;18.30;99.90
55203;DHT22;41077;52.956;6.796;2022-09-09T16:24:26;18.30;99.90
55203;DHT22;41077;52.956;6.796;2022-09-09T16:26:53;18.20;99.90
55203;DHT22;41077;52.956;6.796;2022-09-09T16:29:20;18.20;99.90
55203;DHT22;41077;52.956;6.796;2022-09-09T16:31:47;18.20;99.90
55203;DHT22;41077;52.956;6.796;2022-09-09T16:34:14;18.20;99.90
55203;DHT22;41077;52.956;6.796;2022-09-09T16:36:41;18.10;99.90
55203;DHT22;41077;52.956;6.796;2022-09-09T16:39:13;18.10;99.90
55203;DHT22;41077;52.956;6.796;2022-09-09T16:41:40;18.00;99.90
55203;DHT22;41077;52.956;6.796;2022-09-09T16:44:08;18.00;99.90
55203;DHT22;41077;52.956;6.796;2022-09-09T16:46:39;18.00;99.90
55203;DHT22;41077;52.956;6.796;2022-09-09T16:49:07;18.40;99.90
55203;DHT22;41077;52.956;6.796;2022-09-09T16:51:36;19.00;99.90
55203;DHT22;41077;52.956;6.796;2022-09-09T16:54:04;19.60;99.90
55203;DHT22;41077;52.956;6.796;2022-09-09T16:56:33;19.90;99.90
55203;DHT22;41077;52.956;6.796;2022-09-09T16:59:02;20.10;99.90
55203;DHT22;41077;52.956;6.796;2022-09-09T17:01:30;20.00;99.90
55203;DHT22;41077;52.956;6.796;2022-09-09T17:03:58;20.00;99.90
55203;DHT22;41077;52.956;6.796;2022-09-09T17:06:25;19.90;99.90
55203;DHT22;41077;52.956;6.796;2022-09-09T17:08:59;19.70;99.90
55203;DHT22;41077;52.956;6.796;2022-09-09T17:11:26;19.50;99.90
55203;DHT22;41077;52.956;6.796;2022-09-09T17:13:52;19.30;99.90
55203;DHT22;41077;52.956;6.796;2022-09-09T17:16:20;19.10;99.90
55203;DHT22;41077;52.956;6.796;2022-09-09T17:18:48;19.00;99.90
55203;DHT22;41077;52.956;6.796;2022-09-09T17:21:15;18.80;99.90
55203;DHT22;41077;52.956;6.796;2022-09-09T17:23:42;18.70;99.90
55203;DHT22;41077;52.956;6.796;2022-09-09T17:26:10;18.60;99.90
55203;DHT22;41077;52.956;6.796;2022-09-09T17:28:37;18.50;99.90
55203;DHT22;41077;52.956;6.796;2022-09-09T17:31:07;18.40;99.90
55203;DHT22;41077;52.956;6.796;2022-09-09T17:33:35;18.30;99.90
55203;DHT22;41077;52.956;6.796;2022-09-09T17:36:07;18.30;99.90
55203;DHT22;41077;52.956;6.796;2022-09-09T17:38:33;18.20;99.90
55203;DHT22;41077;52.956;6.796;2022-09-09T17:41:17;18.20;99.90
55203;DHT22;41077;52.956;6.796;2022-09-09T17:43:44;18.10;99.90